createdAt,value
2018-08-17T00:00:01.373Z,0.00
2018-08-17T00:01:01.365Z,0.00
2018-08-17T00:02:01.360Z,0.00
2018-08-17T00:03:01.357Z,0.00
2018-08-17T00:04:01.351Z,0.00
2018-08-17T00:05:01.343Z,0.00
2018-08-17T00:06:01.339Z,0.00
2018-08-17T00:07:01.335Z,0.00
2018-08-17T00:08:01.332Z,0.00
2018-08-17T00:09:01.325Z,0.00
2018-08-17T00:10:01.319Z,0.00
2018-08-17T00:11:01.309Z,0.00
2018-08-17T00:12:01.312Z,0.00
2018-08-17T00:13:01.301Z,0.00
2018-08-17T00:14:01.297Z,0.00
2018-08-17T00:15:01.297Z,0.00
2018-08-17T00:16:01.292Z,0.00
2018-08-17T00:17:01.302Z,0.00
2018-08-17T00:18:01.277Z,0.00
2018-08-17T00:19:01.272Z,0.00
2018-08-17T00:20:01.271Z,0.00
2018-08-17T00:21:01.264Z,0.00
2018-08-17T00:22:01.257Z,0.00
2018-08-17T00:23:01.254Z,0.00
2018-08-17T00:24:01.248Z,0.00
2018-08-17T00:25:01.245Z,0.00
2018-08-17T00:26:01.239Z,0.00
2018-08-17T00:27:01.238Z,0.00
2018-08-17T00:28:01.229Z,0.00
2018-08-17T00:29:01.224Z,0.00
2018-08-17T00:30:01.221Z,0.00
2018-08-17T00:31:01.215Z,0.00
2018-08-17T00:32:01.207Z,0.00
2018-08-17T00:33:01.207Z,0.00
2018-08-17T00:34:01.214Z,0.00
2018-08-17T00:35:01.193Z,0.00
2018-08-17T00:36:01.186Z,0.00
2018-08-17T00:37:01.181Z,0.00
2018-08-17T00:38:01.179Z,0.00
2018-08-17T00:39:01.173Z,0.00
2018-08-17T00:40:01.167Z,0.00
2018-08-17T00:41:01.161Z,0.00
2018-08-17T00:42:01.157Z,0.00
2018-08-17T00:43:01.154Z,0.00
2018-08-17T00:44:01.149Z,0.00
2018-08-17T00:45:01.143Z,0.00
2018-08-17T00:46:01.139Z,0.00
2018-08-17T00:47:01.133Z,0.00
2018-08-17T00:48:01.167Z,0.00
2018-08-17T00:49:01.119Z,0.00
2018-08-17T00:50:01.120Z,0.00
2018-08-17T00:51:01.113Z,0.00
2018-08-17T00:52:01.106Z,0.00
2018-08-17T00:53:01.111Z,0.00
2018-08-17T00:54:01.096Z,0.00
2018-08-17T00:55:01.091Z,0.00
2018-08-17T00:56:01.088Z,0.00
2018-08-17T00:57:01.082Z,0.00
2018-08-17T00:58:01.077Z,0.00
2018-08-17T00:59:01.073Z,0.00
2018-08-17T01:00:01.066Z,0.00
2018-08-17T01:01:01.063Z,0.00
2018-08-17T01:02:01.057Z,0.00
2018-08-17T01:03:01.053Z,0.00
2018-08-17T01:04:01.052Z,0.00
2018-08-17T01:05:01.043Z,0.00
2018-08-17T01:06:01.037Z,0.00
2018-08-17T01:07:01.033Z,0.00
2018-08-17T01:08:01.022Z,0.00
2018-08-17T01:09:01.020Z,0.00
2018-08-17T01:10:01.030Z,0.00
2018-08-17T01:11:01.012Z,0.00
2018-08-17T01:12:01.055Z,0.00
2018-08-17T01:13:00.999Z,0.00
2018-08-17T01:14:00.999Z,0.00
2018-08-17T01:15:00.992Z,0.00
2018-08-17T01:16:00.991Z,0.00
2018-08-17T01:17:00.980Z,0.00
2018-08-17T01:18:00.975Z,0.00
2018-08-17T01:19:00.971Z,0.00
2018-08-17T01:20:00.965Z,0.00
2018-08-17T01:21:00.964Z,0.00
2018-08-17T01:22:00.958Z,0.00
2018-08-17T01:23:00.952Z,0.00
2018-08-17T01:24:00.945Z,0.00
2018-08-17T01:25:00.941Z,0.00
2018-08-17T01:26:00.937Z,0.00
2018-08-17T01:27:00.931Z,0.00
2018-08-17T01:28:00.924Z,0.00
2018-08-17T01:29:00.921Z,0.00
2018-08-17T01:30:00.923Z,0.00
2018-08-17T01:31:00.917Z,0.00
2018-08-17T01:32:00.905Z,0.00
2018-08-17T01:33:00.900Z,0.00
2018-08-17T01:34:00.896Z,0.00
2018-08-17T01:35:00.891Z,0.00
2018-08-17T01:36:00.888Z,0.00
2018-08-17T01:37:00.879Z,0.00
2018-08-17T01:38:00.875Z,0.00
2018-08-17T01:39:00.872Z,0.00
2018-08-17T01:40:00.873Z,0.00
2018-08-17T01:41:00.860Z,0.00
2018-08-17T01:42:00.859Z,0.00
2018-08-17T01:43:00.851Z,0.00
2018-08-17T01:44:00.845Z,0.00
2018-08-17T01:45:00.840Z,0.00
2018-08-17T01:46:00.835Z,0.00
2018-08-17T01:47:00.827Z,0.00
2018-08-17T01:48:00.826Z,0.00
2018-08-17T01:49:00.824Z,0.00
2018-08-17T01:50:00.815Z,0.00
2018-08-17T01:51:00.809Z,0.00
2018-08-17T01:52:00.806Z,0.00
2018-08-17T01:53:00.799Z,0.00
2018-08-17T01:54:00.795Z,0.00
2018-08-17T01:55:00.791Z,0.00
2018-08-17T01:56:00.783Z,0.00
2018-08-17T01:57:00.784Z,0.00
2018-08-17T01:58:00.775Z,0.00
2018-08-17T01:59:00.778Z,0.00
2018-08-17T02:00:00.772Z,0.00
2018-08-17T02:01:00.760Z,0.00
2018-08-17T02:02:00.756Z,0.00
2018-08-17T02:03:00.751Z,0.00
2018-08-17T02:04:00.742Z,0.00
2018-08-17T02:05:00.738Z,0.00
2018-08-17T02:06:00.734Z,0.00
2018-08-17T02:07:00.738Z,0.00
2018-08-17T02:08:00.731Z,0.00
2018-08-17T02:09:00.720Z,0.00
2018-08-17T02:10:00.717Z,0.00
2018-08-17T02:11:00.710Z,0.00
2018-08-17T02:12:00.704Z,0.00
2018-08-17T02:13:00.702Z,0.00
2018-08-17T02:14:00.697Z,0.00
2018-08-17T02:15:00.688Z,0.00
2018-08-17T02:16:00.684Z,0.00
2018-08-17T02:17:00.682Z,0.00
2018-08-17T02:18:00.674Z,0.00
2018-08-17T02:19:00.669Z,0.00
2018-08-17T02:20:00.665Z,0.00
2018-08-17T02:21:00.664Z,0.00
2018-08-17T02:22:00.653Z,0.00
2018-08-17T02:23:00.671Z,0.00
2018-08-17T02:24:00.643Z,0.00
2018-08-17T02:25:00.638Z,0.00
2018-08-17T02:26:00.633Z,0.00
2018-08-17T02:27:00.663Z,0.00
2018-08-17T02:28:00.624Z,0.00
2018-08-17T02:29:00.619Z,0.00
2018-08-17T02:30:00.614Z,0.00
2018-08-17T02:31:00.611Z,0.00
2018-08-17T02:32:00.603Z,0.00
2018-08-17T02:33:00.599Z,0.00
2018-08-17T02:34:00.594Z,0.00
2018-08-17T02:35:00.589Z,0.00
2018-08-17T02:36:00.589Z,0.00
2018-08-17T02:37:00.582Z,0.00
2018-08-17T02:38:00.578Z,0.00
2018-08-17T02:39:00.572Z,0.00
2018-08-17T02:40:00.563Z,0.00
2018-08-17T02:41:00.556Z,0.00
2018-08-17T02:42:00.562Z,0.00
2018-08-17T02:43:00.546Z,0.00
2018-08-17T02:44:00.541Z,0.00
2018-08-17T02:45:00.544Z,0.00
2018-08-17T02:46:00.534Z,0.00
2018-08-17T02:47:00.528Z,0.00
2018-08-17T02:48:00.521Z,0.00
2018-08-17T02:49:00.520Z,0.00
2018-08-17T02:50:00.513Z,0.00
2018-08-17T02:51:00.509Z,0.00
2018-08-17T02:52:00.502Z,0.00
2018-08-17T02:53:00.497Z,0.00
2018-08-17T02:54:00.494Z,0.00
2018-08-17T02:55:00.495Z,0.00
2018-08-17T02:56:00.483Z,0.00
2018-08-17T02:57:00.478Z,0.00
2018-08-17T02:58:00.538Z,0.00
2018-08-17T02:59:00.471Z,0.00
2018-08-17T03:00:00.463Z,0.00
2018-08-17T03:01:00.455Z,0.00
2018-08-17T03:02:00.451Z,0.00
2018-08-17T03:03:00.449Z,0.00
2018-08-17T03:04:00.445Z,0.00
2018-08-17T03:05:00.437Z,0.00
2018-08-17T03:06:00.433Z,0.00
2018-08-17T03:07:00.429Z,0.00
2018-08-17T03:08:00.425Z,0.00
2018-08-17T03:09:00.417Z,0.00
2018-08-17T03:10:00.412Z,0.00
2018-08-17T03:11:00.406Z,0.00
2018-08-17T03:12:00.404Z,0.00
2018-08-17T03:13:00.400Z,0.00
2018-08-17T03:14:00.392Z,0.00
2018-08-17T03:15:00.391Z,0.00
2018-08-17T03:16:00.382Z,0.00
2018-08-17T03:17:00.369Z,0.00
2018-08-17T03:18:00.372Z,0.00
2018-08-17T03:19:00.364Z,0.00
2018-08-17T03:20:00.359Z,0.00
2018-08-17T03:21:00.356Z,0.00
2018-08-17T03:22:00.357Z,0.00
2018-08-17T03:23:00.354Z,0.00
2018-08-17T03:24:00.342Z,0.00
2018-08-17T03:25:00.337Z,0.00
2018-08-17T03:26:00.331Z,0.00
2018-08-17T03:27:00.328Z,0.00
2018-08-17T03:28:00.323Z,0.00
2018-08-17T03:29:00.319Z,0.00
2018-08-17T03:30:00.312Z,0.00
2018-08-17T03:31:00.320Z,0.00
2018-08-17T03:32:00.304Z,0.00
2018-08-17T03:33:00.297Z,0.00
2018-08-17T03:34:00.294Z,0.00
2018-08-17T03:35:00.288Z,0.00
2018-08-17T03:36:00.280Z,0.00
2018-08-17T03:37:00.284Z,0.00
2018-08-17T03:38:00.272Z,0.00
2018-08-17T03:39:00.265Z,0.00
2018-08-17T03:40:00.260Z,4.00
2018-08-17T03:41:00.259Z,4.00
2018-08-17T03:42:00.250Z,0.00
2018-08-17T03:43:00.247Z,0.00
2018-08-17T03:44:00.239Z,0.00
2018-08-17T03:45:00.234Z,0.00
2018-08-17T03:46:00.232Z,0.00
2018-08-17T03:47:00.223Z,0.00
2018-08-17T03:48:00.214Z,0.00
2018-08-17T03:49:00.210Z,0.00
2018-08-17T03:50:00.216Z,0.00
2018-08-17T03:51:00.200Z,0.00
2018-08-17T03:52:00.221Z,0.00
2018-08-17T03:53:00.187Z,0.00
2018-08-17T03:54:00.183Z,0.00
2018-08-17T03:55:00.174Z,0.00
2018-08-17T03:56:00.165Z,0.00
2018-08-17T03:57:00.171Z,0.00
2018-08-17T03:58:00.162Z,0.00
2018-08-17T03:59:00.154Z,0.00
2018-08-17T04:00:00.145Z,0.00
2018-08-17T04:01:00.141Z,4.00
2018-08-17T04:02:00.136Z,4.00
2018-08-17T04:03:00.129Z,4.00
2018-08-17T04:04:00.119Z,0.00
2018-08-17T04:05:00.116Z,4.00
2018-08-17T04:06:00.126Z,4.00
2018-08-17T04:07:00.109Z,4.00
2018-08-17T04:08:00.098Z,4.00
2018-08-17T04:09:00.091Z,4.00
2018-08-17T04:10:00.090Z,8.00
2018-08-17T04:11:00.078Z,4.00
2018-08-17T04:12:00.077Z,8.00
2018-08-17T04:13:00.079Z,8.00
2018-08-17T04:14:00.071Z,8.00
2018-08-17T04:15:00.055Z,12.00
2018-08-17T04:16:00.048Z,8.00
2018-08-17T04:17:00.045Z,12.00
2018-08-17T04:18:00.039Z,16.00
2018-08-17T04:19:00.030Z,12.00
2018-08-17T04:20:00.023Z,16.00
2018-08-17T04:21:00.017Z,16.00
2018-08-17T04:22:00.012Z,16.00
2018-08-17T04:23:00.010Z,16.00
2018-08-17T04:24:00.000Z,20.00
2018-08-17T04:24:59.994Z,20.00
2018-08-17T04:25:59.987Z,24.00
2018-08-17T04:26:59.979Z,24.00
2018-08-17T04:27:59.974Z,28.00
2018-08-17T04:28:59.975Z,28.00
2018-08-17T04:29:59.970Z,32.00
2018-08-17T04:30:59.957Z,28.00
2018-08-17T04:31:59.950Z,32.00
2018-08-17T04:32:59.940Z,32.00
2018-08-17T04:33:59.955Z,36.00
2018-08-17T04:34:59.932Z,40.00
2018-08-17T04:35:59.923Z,40.00
2018-08-17T04:36:59.917Z,44.00
2018-08-17T04:37:59.914Z,44.00
2018-08-17T04:38:59.905Z,48.00
2018-08-17T04:39:59.901Z,48.00
2018-08-17T04:40:59.895Z,52.00
2018-08-17T04:41:59.887Z,52.00
2018-08-17T04:42:59.878Z,56.00
2018-08-17T04:43:59.878Z,56.00
2018-08-17T04:44:59.866Z,60.00
2018-08-17T04:45:59.860Z,64.00
2018-08-17T04:46:59.853Z,64.00
2018-08-17T04:47:59.848Z,68.00
2018-08-17T04:48:59.841Z,72.00
2018-08-17T04:49:59.835Z,72.00
2018-08-17T04:50:59.850Z,76.00
2018-08-17T04:51:59.823Z,80.00
2018-08-17T04:52:59.817Z,84.00
2018-08-17T04:53:59.813Z,84.00
2018-08-17T04:54:59.805Z,84.00
2018-08-17T04:55:59.797Z,88.00
2018-08-17T04:56:59.788Z,92.00
2018-08-17T04:57:59.783Z,100.00
2018-08-17T04:58:59.779Z,104.00
2018-08-17T04:59:59.771Z,108.00
2018-08-17T05:00:59.763Z,112.00
2018-08-17T05:01:59.764Z,116.00
2018-08-17T05:02:59.751Z,120.00
2018-08-17T05:03:59.747Z,124.00
2018-08-17T05:04:59.736Z,132.00
2018-08-17T05:05:59.734Z,132.00
2018-08-17T05:06:59.734Z,140.00
2018-08-17T05:07:59.721Z,144.00
2018-08-17T05:08:59.725Z,144.00
2018-08-17T05:09:59.710Z,152.00
2018-08-17T05:10:59.701Z,156.00
2018-08-17T05:11:59.694Z,156.00
2018-08-17T05:12:59.686Z,160.00
2018-08-17T05:13:59.687Z,164.00
2018-08-17T05:14:59.675Z,168.00
2018-08-17T05:15:59.669Z,168.00
2018-08-17T05:16:59.661Z,168.00
2018-08-17T05:17:59.655Z,168.00
2018-08-17T05:18:59.649Z,172.00
2018-08-17T05:19:59.642Z,176.00
2018-08-17T05:20:59.642Z,176.00
2018-08-17T05:21:59.635Z,176.00
2018-08-17T05:22:59.624Z,184.00
2018-08-17T05:23:59.620Z,188.00
2018-08-17T05:24:59.613Z,196.00
2018-08-17T05:25:59.606Z,200.00
2018-08-17T05:26:59.597Z,208.00
2018-08-17T05:27:59.590Z,212.00
2018-08-17T05:28:59.588Z,216.00
2018-08-17T05:29:59.577Z,228.00
2018-08-17T05:30:59.573Z,240.00
2018-08-17T05:31:59.564Z,240.00
2018-08-17T05:32:59.560Z,248.00
2018-08-17T05:33:59.555Z,248.00
2018-08-17T05:34:59.546Z,252.00
2018-08-17T05:35:59.597Z,256.00
2018-08-17T05:36:59.554Z,260.00
2018-08-17T05:37:59.529Z,316.00
2018-08-17T05:38:59.523Z,268.00
2018-08-17T05:39:59.516Z,272.00
2018-08-17T05:40:59.508Z,272.00
2018-08-17T05:41:59.503Z,296.00
2018-08-17T05:42:59.496Z,284.00
2018-08-17T05:43:59.500Z,300.00
2018-08-17T05:44:59.524Z,400.00
2018-08-17T05:45:59.477Z,432.00
2018-08-17T05:46:59.470Z,424.00
2018-08-17T05:47:59.463Z,448.00
2018-08-17T05:48:59.458Z,412.00
2018-08-17T05:49:59.451Z,340.00
2018-08-17T05:50:59.444Z,356.00
2018-08-17T05:51:59.436Z,356.00
2018-08-17T05:52:59.434Z,436.00
2018-08-17T05:53:59.423Z,324.00
2018-08-17T05:54:59.420Z,320.00
2018-08-17T05:55:59.412Z,364.00
2018-08-17T05:56:59.404Z,400.00
2018-08-17T05:57:59.399Z,340.00
2018-08-17T05:58:59.401Z,364.00
2018-08-17T05:59:59.389Z,364.00
2018-08-17T06:00:59.380Z,380.00
2018-08-17T06:01:59.373Z,392.00
2018-08-17T06:02:59.406Z,392.00
2018-08-17T06:03:59.361Z,400.00
2018-08-17T06:04:59.356Z,400.00
2018-08-17T06:05:59.348Z,412.00
2018-08-17T06:06:59.359Z,516.00
2018-08-17T06:07:59.338Z,432.00
2018-08-17T06:13:34.618Z,620.00
2018-08-17T06:14:34.603Z,540.00
2018-08-17T06:16:27.480Z,588.00
2018-08-17T06:17:27.465Z,524.00
2018-08-17T06:19:20.410Z,760.00
2018-08-17T06:20:20.338Z,616.00
2018-08-17T06:22:14.211Z,672.00
2018-08-17T06:23:14.217Z,596.00
2018-08-17T06:25:07.095Z,584.00
2018-08-17T06:26:07.065Z,600.00
2018-08-17T06:27:59.958Z,608.00
2018-08-17T06:28:59.932Z,748.00
2018-08-17T06:29:59.928Z,612.00
2018-08-17T06:30:59.921Z,708.00
2018-08-17T06:31:59.918Z,668.00
2018-08-17T06:32:59.906Z,632.00
2018-08-17T06:33:59.900Z,612.00
2018-08-17T06:34:59.895Z,704.00
2018-08-17T06:35:59.925Z,608.00
2018-08-17T06:36:59.883Z,584.00
2018-08-17T06:37:59.876Z,588.00
2018-08-17T06:38:59.876Z,648.00
2018-08-17T06:39:59.862Z,600.00
2018-08-17T06:40:59.856Z,596.00
2018-08-17T06:41:59.848Z,608.00
2018-08-17T06:42:59.847Z,616.00
2018-08-17T06:43:59.837Z,664.00
2018-08-17T06:44:59.830Z,672.00
2018-08-17T06:45:59.824Z,1020.00
2018-08-17T06:46:59.818Z,760.00
2018-08-17T06:47:59.812Z,896.00
2018-08-17T06:48:59.813Z,1168.00
2018-08-17T06:49:59.797Z,828.00
2018-08-17T06:50:59.912Z,856.00
2018-08-17T06:51:59.791Z,1308.00
2018-08-17T06:52:59.780Z,1320.00
2018-08-17T06:53:59.775Z,1336.00
2018-08-17T06:54:59.768Z,1316.00
2018-08-17T07:02:27.125Z,1204.00
2018-08-17T07:03:06.106Z,1132.00
2018-08-17T07:07:09.150Z,1320.00
2018-08-17T07:08:09.124Z,892.00
2018-08-17T07:10:02.012Z,1280.00
2018-08-17T07:11:01.993Z,1456.00
2018-08-17T07:12:54.869Z,1024.00
2018-08-17T07:13:54.851Z,1452.00
2018-08-17T07:15:47.736Z,1672.00
2018-08-17T07:16:47.720Z,1684.00
2018-08-17T07:18:41.109Z,1676.00
2018-08-17T07:19:41.091Z,1656.00
2018-08-17T07:21:33.993Z,1232.00
2018-08-17T07:22:33.961Z,1732.00
2018-08-17T07:24:26.856Z,1324.00
2018-08-17T07:25:26.842Z,1532.00
2018-08-17T07:27:19.707Z,1752.00
2018-08-17T07:28:19.710Z,1796.00
2018-08-17T07:30:12.590Z,1816.00
2018-08-17T07:31:12.566Z,1868.00
2018-08-17T07:33:05.448Z,1924.00
2018-08-17T07:34:05.438Z,1916.00
2018-08-17T07:35:59.343Z,2028.00
2018-08-17T07:36:59.289Z,2028.00
2018-08-17T07:38:52.180Z,2008.00
2018-08-17T07:39:52.153Z,2004.00
2018-08-17T07:41:45.103Z,2020.00
2018-08-17T07:42:45.026Z,2040.00
2018-08-17T07:44:37.921Z,2016.00
2018-08-17T07:45:37.901Z,2088.00
2018-08-17T07:47:30.778Z,2180.00
2018-08-17T07:48:30.776Z,2188.00
2018-08-17T07:50:23.661Z,2136.00
2018-08-17T07:51:23.635Z,2172.00
2018-08-17T07:53:16.517Z,2268.00
2018-08-17T07:54:16.506Z,2176.00
2018-08-17T07:56:09.390Z,1488.00
2018-08-17T07:57:09.374Z,2384.00
2018-08-17T07:59:02.325Z,2636.00
2018-08-17T08:00:02.247Z,2648.00
2018-08-17T08:01:55.125Z,2752.00
2018-08-17T08:02:55.116Z,2592.00
2018-08-17T08:04:48.007Z,1328.00
2018-08-17T08:05:47.980Z,1252.00
2018-08-17T08:07:40.868Z,1208.00
2018-08-17T08:08:40.856Z,1268.00
2018-08-17T08:10:33.739Z,2172.00
2018-08-17T08:11:33.718Z,2640.00
2018-08-17T08:13:26.600Z,2280.00
2018-08-17T08:14:26.591Z,2744.00
2018-08-17T08:15:26.592Z,2716.00
2018-08-17T08:16:26.577Z,2684.00
2018-08-17T08:17:26.572Z,2584.00
2018-08-17T08:18:26.566Z,2908.00
2018-08-17T08:19:26.560Z,2860.00
2018-08-17T08:20:26.598Z,3016.00
2018-08-17T08:21:26.550Z,2096.00
2018-08-17T08:22:26.544Z,2244.00
2018-08-17T08:23:26.539Z,2096.00
2018-08-17T08:24:26.532Z,1536.00
2018-08-17T08:25:26.529Z,2244.00
2018-08-17T08:26:26.521Z,1600.00
2018-08-17T08:27:26.516Z,2232.00
2018-08-17T08:28:26.514Z,1948.00
2018-08-17T08:29:26.506Z,1808.00
2018-08-17T08:30:26.500Z,2044.00
2018-08-17T08:31:26.494Z,1400.00
2018-08-17T08:32:26.539Z,1380.00
2018-08-17T08:33:26.483Z,1432.00
2018-08-17T08:34:26.480Z,1844.00
2018-08-17T08:35:26.471Z,1472.00
2018-08-17T08:36:26.485Z,1412.00
2018-08-17T08:37:26.465Z,1432.00
2018-08-17T08:38:26.462Z,2628.00
2018-08-17T08:39:26.452Z,2784.00
2018-08-17T08:40:26.446Z,1416.00
2018-08-17T08:41:26.443Z,1364.00
2018-08-17T08:42:26.435Z,1356.00
2018-08-17T08:43:26.430Z,1412.00
2018-08-17T08:44:26.426Z,2720.00
2018-08-17T08:45:26.424Z,2644.00
2018-08-17T08:46:26.416Z,2860.00
2018-08-17T08:47:26.406Z,2280.00
2018-08-17T08:48:26.409Z,1508.00
2018-08-17T08:49:26.404Z,1640.00
2018-08-17T08:50:26.397Z,3072.00
2018-08-17T08:51:26.385Z,2228.00
2018-08-17T08:52:26.382Z,2824.00
2018-08-17T08:53:26.377Z,3000.00
2018-08-17T08:54:26.371Z,3032.00
2018-08-17T08:55:26.367Z,2924.00
2018-08-17T08:56:26.360Z,3344.00
2018-08-17T08:57:26.354Z,3428.00
2018-08-17T08:58:26.348Z,3360.00
2018-08-17T08:59:26.343Z,3012.00
2018-08-17T09:00:26.339Z,3088.00
2018-08-17T09:01:26.332Z,3012.00
2018-08-17T09:02:26.330Z,3164.00
2018-08-17T09:03:26.321Z,2964.00
2018-08-17T09:04:26.314Z,3196.00
2018-08-17T09:05:26.330Z,3412.00
2018-08-17T09:06:26.323Z,3424.00
2018-08-17T09:07:26.301Z,3412.00
2018-08-17T09:08:26.304Z,3420.00
2018-08-17T09:09:26.294Z,3440.00
2018-08-17T09:10:26.289Z,3412.00
2018-08-17T09:11:26.314Z,3384.00
2018-08-17T09:12:26.277Z,3424.00
2018-08-17T09:13:26.270Z,3532.00
2018-08-17T09:14:26.266Z,3500.00
2018-08-17T09:15:26.259Z,3388.00
2018-08-17T09:16:26.255Z,3276.00
2018-08-17T09:17:26.253Z,3080.00
2018-08-17T09:18:26.247Z,3436.00
2018-08-17T09:19:26.241Z,3252.00
2018-08-17T09:20:26.275Z,3328.00
2018-08-17T09:21:26.233Z,3424.00
2018-08-17T09:22:26.230Z,3196.00
2018-08-17T09:23:26.221Z,3416.00
2018-08-17T09:24:26.214Z,3676.00
2018-08-17T09:25:26.212Z,3600.00
2018-08-17T09:26:26.209Z,3296.00
2018-08-17T09:27:26.208Z,3204.00
2018-08-17T09:28:26.195Z,3300.00
2018-08-17T09:29:26.194Z,3548.00
2018-08-17T09:30:26.186Z,3600.00
2018-08-17T09:31:26.180Z,3596.00
2018-08-17T09:32:26.186Z,3680.00
2018-08-17T09:33:26.172Z,3728.00
2018-08-17T09:34:26.168Z,3328.00
2018-08-17T09:35:26.163Z,3776.00
2018-08-17T09:36:26.166Z,3832.00
2018-08-17T09:37:26.152Z,3816.00
2018-08-17T09:38:26.151Z,3880.00
2018-08-17T09:39:26.142Z,3768.00
2018-08-17T09:40:26.142Z,3760.00
2018-08-17T09:41:26.134Z,3652.00
2018-08-17T09:42:26.129Z,3588.00
2018-08-17T09:43:26.124Z,3536.00
2018-08-17T09:44:26.118Z,3368.00
2018-08-17T09:45:26.119Z,3428.00
2018-08-17T09:46:26.114Z,3672.00
2018-08-17T09:47:26.110Z,3492.00
2018-08-17T09:48:26.101Z,3636.00
2018-08-17T09:49:26.098Z,3676.00
2018-08-17T09:50:26.091Z,3892.00
2018-08-17T09:51:26.184Z,3488.00
2018-08-17T09:52:26.082Z,3796.00
2018-08-17T09:53:26.077Z,4028.00
2018-08-17T09:54:26.074Z,3916.00
2018-08-17T09:55:26.070Z,3940.00
2018-08-17T09:56:26.070Z,3880.00
2018-08-17T09:57:26.108Z,3852.00
2018-08-17T09:58:26.061Z,3528.00
2018-08-17T09:59:26.050Z,3892.00
2018-08-17T10:00:26.047Z,3916.00
2018-08-17T10:01:26.044Z,2644.00
2018-08-17T10:02:26.037Z,3080.00
2018-08-17T10:03:26.033Z,3564.00
2018-08-17T10:04:26.031Z,3856.00
2018-08-17T10:05:26.030Z,3636.00
2018-08-17T10:06:26.020Z,3744.00
2018-08-17T10:07:26.021Z,3824.00
2018-08-17T10:08:26.008Z,3884.00
2018-08-17T10:09:26.008Z,3740.00
2018-08-17T10:10:26.006Z,3448.00
2018-08-17T10:11:25.997Z,3724.00
2018-08-17T10:12:25.994Z,2996.00
2018-08-17T10:13:25.987Z,3824.00
2018-08-17T10:14:25.983Z,3956.00
2018-08-17T10:15:25.979Z,3964.00
2018-08-17T10:16:25.976Z,3876.00
2018-08-17T10:17:25.974Z,3692.00
2018-08-17T10:18:25.966Z,3880.00
2018-08-17T10:19:25.964Z,3892.00
2018-08-17T10:20:25.958Z,2584.00
2018-08-17T10:21:26.302Z,3900.00
2018-08-17T10:22:25.950Z,3856.00
2018-08-17T10:23:25.944Z,3820.00
2018-08-17T10:24:25.943Z,3760.00
2018-08-17T10:25:25.936Z,3868.00
2018-08-17T10:26:25.933Z,3860.00
2018-08-17T10:27:25.933Z,3800.00
2018-08-17T10:28:25.926Z,3688.00
2018-08-17T10:29:25.918Z,3620.00
2018-08-17T10:30:25.916Z,3548.00
2018-08-17T10:31:25.910Z,3716.00
2018-08-17T10:32:25.909Z,3748.00
2018-08-17T10:33:25.900Z,3812.00
2018-08-17T10:34:25.898Z,3780.00
2018-08-17T10:35:25.895Z,3708.00
2018-08-17T10:36:25.887Z,2064.00
2018-08-17T10:37:25.886Z,3348.00
2018-08-17T10:38:25.878Z,3760.00
2018-08-17T10:39:25.873Z,3752.00
2018-08-17T10:40:25.873Z,3560.00
2018-08-17T10:41:25.872Z,3484.00
2018-08-17T10:42:25.862Z,3356.00
2018-08-17T10:43:25.857Z,3372.00
2018-08-17T10:44:25.854Z,3468.00
2018-08-17T10:45:25.848Z,3532.00
2018-08-17T10:46:25.843Z,3484.00
2018-08-17T10:47:25.856Z,3472.00
2018-08-17T10:48:25.836Z,3416.00
2018-08-17T10:49:25.835Z,3408.00
2018-08-17T10:50:25.836Z,3284.00
2018-08-17T10:51:25.828Z,3184.00
2018-08-17T10:52:25.820Z,3152.00
2018-08-17T10:53:25.814Z,2844.00
2018-08-17T10:54:25.815Z,2532.00
2018-08-17T10:55:25.810Z,2720.00
2018-08-17T10:56:25.805Z,3060.00
2018-08-17T10:57:25.858Z,3132.00
2018-08-17T10:58:25.793Z,3168.00
2018-08-17T10:59:25.790Z,3172.00
2018-08-17T11:00:25.788Z,3128.00
2018-08-17T11:01:25.794Z,3056.00
2018-08-17T11:02:25.777Z,3088.00
2018-08-17T11:03:25.774Z,2504.00
2018-08-17T11:04:25.769Z,3084.00
2018-08-17T11:05:25.767Z,3084.00
2018-08-17T11:06:25.764Z,3104.00
2018-08-17T11:07:25.758Z,3072.00
2018-08-17T11:08:25.752Z,3048.00
2018-08-17T11:09:25.747Z,3016.00
2018-08-17T11:10:25.746Z,3020.00
2018-08-17T11:11:25.740Z,2996.00
2018-08-17T11:12:25.745Z,2972.00
2018-08-17T11:13:25.742Z,2960.00
2018-08-17T11:14:25.737Z,2956.00
2018-08-17T11:15:25.735Z,2952.00
2018-08-17T11:16:25.724Z,2944.00
2018-08-17T11:17:25.717Z,2940.00
2018-08-17T11:18:25.711Z,2948.00
2018-08-17T11:19:25.707Z,2928.00
2018-08-17T11:20:25.702Z,2900.00
2018-08-17T11:21:25.698Z,2868.00
2018-08-17T11:22:25.746Z,2828.00
2018-08-17T11:23:25.694Z,2816.00
2018-08-17T11:24:25.688Z,2772.00
2018-08-17T11:25:25.685Z,2740.00
2018-08-17T11:26:25.680Z,2752.00
2018-08-17T11:27:25.673Z,2748.00
2018-08-17T11:28:25.670Z,2728.00
2018-08-17T11:29:25.666Z,2712.00
2018-08-17T11:30:25.658Z,2676.00
2018-08-17T11:31:25.656Z,2652.00
2018-08-17T11:32:25.655Z,2616.00
2018-08-17T11:33:25.654Z,2612.00
2018-08-17T11:34:25.750Z,2600.00
2018-08-17T11:35:25.640Z,2580.00
2018-08-17T11:36:25.639Z,2544.00
2018-08-17T11:37:25.633Z,2516.00
2018-08-17T11:38:25.628Z,2468.00
2018-08-17T11:39:25.624Z,2404.00
2018-08-17T11:40:25.619Z,2396.00
2018-08-17T11:41:25.659Z,2380.00
2018-08-17T11:42:25.613Z,2344.00
2018-08-17T11:43:25.608Z,2328.00
2018-08-17T11:44:25.641Z,2292.00
2018-08-17T11:45:25.603Z,2292.00
2018-08-17T11:46:25.595Z,2260.00
2018-08-17T11:47:25.592Z,2252.00
2018-08-17T11:48:25.586Z,2240.00
2018-08-17T11:49:25.582Z,2228.00
2018-08-17T11:50:25.582Z,2204.00
2018-08-17T11:51:25.576Z,2176.00
2018-08-17T11:52:25.566Z,2176.00
2018-08-17T11:53:25.593Z,2144.00
2018-08-17T11:54:25.580Z,2132.00
2018-08-17T11:55:25.574Z,2112.00
2018-08-17T11:56:25.566Z,2088.00
2018-08-17T11:57:25.569Z,2056.00
2018-08-17T11:58:25.546Z,2024.00
2018-08-17T11:59:25.541Z,1992.00
2018-08-17T12:00:25.538Z,1912.00
2018-08-17T12:01:25.535Z,1916.00
2018-08-17T12:02:25.527Z,1912.00
2018-08-17T12:03:25.524Z,1876.00
2018-08-17T12:04:25.523Z,1868.00
2018-08-17T12:05:25.517Z,1844.00
2018-08-17T12:06:25.512Z,1824.00
2018-08-17T12:07:25.507Z,1780.00
2018-08-17T12:08:25.513Z,1768.00
2018-08-17T12:09:25.501Z,1748.00
2018-08-17T12:10:25.499Z,1724.00
2018-08-17T12:11:25.496Z,1700.00
2018-08-17T12:12:25.489Z,1672.00
2018-08-17T12:13:25.485Z,1648.00
2018-08-17T12:14:25.480Z,1620.00
2018-08-17T12:15:25.476Z,1592.00
2018-08-17T12:16:25.468Z,1452.00
2018-08-17T12:17:25.466Z,1556.00
2018-08-17T12:18:25.467Z,1552.00
2018-08-17T12:19:25.475Z,1532.00
2018-08-17T12:20:25.454Z,1520.00
2018-08-17T12:21:25.448Z,1500.00
2018-08-17T12:22:25.446Z,1456.00
2018-08-17T12:23:25.442Z,1468.00
2018-08-17T12:24:25.511Z,1452.00
2018-08-17T12:25:25.443Z,1440.00
2018-08-17T12:26:25.428Z,1420.00
2018-08-17T12:27:25.424Z,1388.00
2018-08-17T12:28:32.326Z,1372.00
2018-08-17T12:29:25.416Z,1360.00
2018-08-17T12:30:25.415Z,1344.00
2018-08-17T12:31:25.408Z,1328.00
2018-08-17T12:32:25.406Z,1316.00
2018-08-17T12:33:25.407Z,1300.00
2018-08-17T12:34:25.398Z,1284.00
2018-08-17T12:35:25.392Z,1272.00
2018-08-17T12:36:25.385Z,1268.00
2018-08-17T12:37:25.389Z,1264.00
2018-08-17T12:38:25.378Z,1256.00
2018-08-17T12:39:25.371Z,1248.00
2018-08-17T12:40:25.378Z,1240.00
2018-08-17T12:41:25.365Z,1232.00
2018-08-17T12:42:25.365Z,1224.00
2018-08-17T12:43:25.366Z,1232.00
2018-08-17T12:44:25.352Z,1236.00
2018-08-17T12:45:25.353Z,1232.00
2018-08-17T12:46:25.375Z,1232.00
2018-08-17T12:47:25.343Z,1228.00
2018-08-17T12:48:25.338Z,1228.00
2018-08-17T12:49:25.337Z,1220.00
2018-08-17T12:50:25.324Z,1220.00
2018-08-17T12:51:25.326Z,1220.00
2018-08-17T12:52:25.340Z,1216.00
2018-08-17T12:53:25.318Z,1180.00
2018-08-17T12:54:25.313Z,1212.00
2018-08-17T12:55:25.305Z,1188.00
2018-08-17T12:56:25.305Z,1148.00
2018-08-17T12:57:25.297Z,1128.00
2018-08-17T12:58:25.297Z,1156.00
2018-08-17T12:59:25.290Z,1044.00
2018-08-17T13:00:25.286Z,1148.00
2018-08-17T13:01:25.282Z,1144.00
2018-08-17T13:02:25.277Z,1120.00
2018-08-17T13:03:25.269Z,1104.00
2018-08-17T13:04:25.266Z,1096.00
2018-08-17T13:05:25.262Z,1076.00
2018-08-17T13:06:25.258Z,1068.00
2018-08-17T13:07:25.259Z,1060.00
2018-08-17T13:08:25.248Z,1028.00
2018-08-17T13:09:25.248Z,988.00
2018-08-17T13:10:25.241Z,1000.00
2018-08-17T13:11:25.280Z,908.00
2018-08-17T13:12:25.231Z,972.00